Weather at Korçë Airfield [CLOSED]

Public forecast

Using degrees Celsius for public forecast. Weather courtesy of forecast.io.

Closest aviation weather report (METAR) to Korçë Airfield

Report is more than 2 hours old.

Closest report is Ohrid St. Paul the Apostle Airport, 31.7 nm (58.7 km) N. Retrieved 2022/05/21 19:00 UTC (4 hours ago):

LWOH 211900Z 10005KT CAVOK 19/09 Q1016

Closest aviation forecast (TAF) to Korçë Airfield

Closest forecast is Ohrid St. Paul the Apostle Airport, 31.7 nm (58.7 km) N. Retrieved 2022/05/21 21:39 UTC (1 hour ago):

TAF LWOH 212030Z 2121/2221 VRB02KT CAVOK BECMG 2206/2208 SCT040 BKN080 PROB40 TEMPO 2210/2216 SHRA FEW033CB BKN040